sensor_id;sensor_type;location;lat;lon;timestamp;temperature;humidity
1626;DHT22;806;48.770;9.156;2023-03-14T00:00:56;10.30;99.90
1626;DHT22;806;48.770;9.156;2023-03-14T00:03:24;10.20;99.90
1626;DHT22;806;48.770;9.156;2023-03-14T00:05:52;10.20;99.90
1626;DHT22;806;48.770;9.156;2023-03-14T00:08:19;10.20;99.90
1626;DHT22;806;48.770;9.156;2023-03-14T00:10:47;10.20;99.90
1626;DHT22;806;48.770;9.156;2023-03-14T00:13:14;10.30;99.90
1626;DHT22;806;48.770;9.156;2023-03-14T00:15:41;10.20;99.90
1626;DHT22;806;48.770;9.156;2023-03-14T00:18:08;10.20;99.90
1626;DHT22;806;48.770;9.156;2023-03-14T00:20:37;10.30;99.90
1626;DHT22;806;48.770;9.156;2023-03-14T00:23:04;10.30;99.90
1626;DHT22;806;48.770;9.156;2023-03-14T00:25:31;10.30;99.90
1626;DHT22;806;48.770;9.156;2023-03-14T00:27:58;10.30;99.90
1626;DHT22;806;48.770;9.156;2023-03-14T00:30:25;10.20;99.90
1626;DHT22;806;48.770;9.156;2023-03-14T00:32:52;10.20;99.90
1626;DHT22;806;48.770;9.156;2023-03-14T00:35:19;10.20;99.90
1626;DHT22;806;48.770;9.156;2023-03-14T00:37:48;10.20;99.90
1626;DHT22;806;48.770;9.156;2023-03-14T00:40:15;10.30;99.90
1626;DHT22;806;48.770;9.156;2023-03-14T00:42:43;10.30;99.90
1626;DHT22;806;48.770;9.156;2023-03-14T00:45:10;10.30;99.90
1626;DHT22;806;48.770;9.156;2023-03-14T00:47:37;10.30;99.90
1626;DHT22;806;48.770;9.156;2023-03-14T00:50:05;10.40;99.90
1626;DHT22;806;48.770;9.156;2023-03-14T00:52:33;10.30;99.90
1626;DHT22;806;48.770;9.156;2023-03-14T00:55:01;10.40;99.90
1626;DHT22;806;48.770;9.156;2023-03-14T00:57:28;10.40;99.90
1626;DHT22;806;48.770;9.156;2023-03-14T00:59:55;10.50;99.90
1626;DHT22;806;48.770;9.156;2023-03-14T01:02:23;10.40;99.90
1626;DHT22;806;48.770;9.156;2023-03-14T01:04:50;10.40;99.90
1626;DHT22;806;48.770;9.156;2023-03-14T01:07:17;10.40;99.90
1626;DHT22;806;48.770;9.156;2023-03-14T01:09:44;10.30;99.90
1626;DHT22;806;48.770;9.156;2023-03-14T01:12:12;10.30;99.90
1626;DHT22;806;48.770;9.156;2023-03-14T01:14:40;10.40;99.90
1626;DHT22;806;48.770;9.156;2023-03-14T01:17:07;10.50;99.90
1626;DHT22;806;48.770;9.156;2023-03-14T01:19:34;10.50;99.90
1626;DHT22;806;48.770;9.156;2023-03-14T01:22:01;10.40;99.90
1626;DHT22;806;48.770;9.156;2023-03-14T01:24:28;10.40;99.90
1626;DHT22;806;48.770;9.156;2023-03-14T01:26:55;10.40;99.90
1626;DHT22;806;48.770;9.156;2023-03-14T01:29:24;10.50;99.90
1626;DHT22;806;48.770;9.156;2023-03-14T01:31:51;10.50;99.90
1626;DHT22;806;48.770;9.156;2023-03-14T01:34:18;10.50;99.90
1626;DHT22;806;48.770;9.156;2023-03-14T01:36:45;10.40;99.90
1626;DHT22;806;48.770;9.156;2023-03-14T01:39:12;10.40;99.90
1626;DHT22;806;48.770;9.156;2023-03-14T01:41:40;10.50;99.90
1626;DHT22;806;48.770;9.156;2023-03-14T01:44:09;10.50;99.90
1626;DHT22;806;48.770;9.156;2023-03-14T01:46:40;10.40;99.90
1626;DHT22;806;48.770;9.156;2023-03-14T01:49:13;10.50;99.90
1626;DHT22;806;48.770;9.156;2023-03-14T01:51:46;10.50;99.90
1626;DHT22;806;48.770;9.156;2023-03-14T01:54:18;10.50;99.90
1626;DHT22;806;48.770;9.156;2023-03-14T01:56:49;10.40;99.90
1626;DHT22;806;48.770;9.156;2023-03-14T01:59:17;10.30;99.90
1626;DHT22;806;48.770;9.156;2023-03-14T02:01:47;10.30;99.90
1626;DHT22;806;48.770;9.156;2023-03-14T02:04:17;10.40;99.90
1626;DHT22;806;48.770;9.156;2023-03-14T02:06:49;10.40;99.90
1626;DHT22;806;48.770;9.156;2023-03-14T02:09:17;10.40;99.90
1626;DHT22;806;48.770;9.156;2023-03-14T02:11:45;10.40;99.90
1626;DHT22;806;48.770;9.156;2023-03-14T02:14:21;10.50;99.90
1626;DHT22;806;48.770;9.156;2023-03-14T02:16:53;10.50;99.90
1626;DHT22;806;48.770;9.156;2023-03-14T02:19:26;10.50;99.90
1626;DHT22;806;48.770;9.156;2023-03-14T02:22:02;10.50;99.90
1626;DHT22;806;48.770;9.156;2023-03-14T02:24:35;10.50;99.90
1626;DHT22;806;48.770;9.156;2023-03-14T02:27:11;10.40;99.90
1626;DHT22;806;48.770;9.156;2023-03-14T02:29:43;10.40;99.90
1626;DHT22;806;48.770;9.156;2023-03-14T02:32:13;10.40;99.90
1626;DHT22;806;48.770;9.156;2023-03-14T02:34:43;10.30;99.90
1626;DHT22;806;48.770;9.156;2023-03-14T02:37:12;10.30;99.90
1626;DHT22;806;48.770;9.156;2023-03-14T02:39:43;10.20;99.90
1626;DHT22;806;48.770;9.156;2023-03-14T02:42:13;10.20;99.90
1626;DHT22;806;48.770;9.156;2023-03-14T02:44:52;10.20;99.90
1626;DHT22;806;48.770;9.156;2023-03-14T02:47:25;10.10;99.90
1626;DHT22;806;48.770;9.156;2023-03-14T02:49:59;10.20;99.90
1626;DHT22;806;48.770;9.156;2023-03-14T02:52:27;10.20;99.90
1626;DHT22;806;48.770;9.156;2023-03-14T02:54:54;10.20;99.90
1626;DHT22;806;48.770;9.156;2023-03-14T02:57:23;10.20;99.90
1626;DHT22;806;48.770;9.156;2023-03-14T02:59:50;10.10;99.90
1626;DHT22;806;48.770;9.156;2023-03-14T03:02:17;10.20;99.90
1626;DHT22;806;48.770;9.156;2023-03-14T03:04:44;10.20;99.90
1626;DHT22;806;48.770;9.156;2023-03-14T03:07:11;10.20;99.90
1626;DHT22;806;48.770;9.156;2023-03-14T03:09:38;10.20;99.90
1626;DHT22;806;48.770;9.156;2023-03-14T03:12:06;10.20;99.90
1626;DHT22;806;48.770;9.156;2023-03-14T03:14:34;10.20;99.90
1626;DHT22;806;48.770;9.156;2023-03-14T03:17:03;10.30;99.90
1626;DHT22;806;48.770;9.156;2023-03-14T03:19:30;10.30;99.90
1626;DHT22;806;48.770;9.156;2023-03-14T03:21:57;10.30;99.90
1626;DHT22;806;48.770;9.156;2023-03-14T03:24:25;10.30;99.90
1626;DHT22;806;48.770;9.156;2023-03-14T03:26:52;10.20;99.90
1626;DHT22;806;48.770;9.156;2023-03-14T03:29:20;10.30;99.90
1626;DHT22;806;48.770;9.156;2023-03-14T03:31:48;10.20;99.90
1626;DHT22;806;48.770;9.156;2023-03-14T03:34:15;10.20;99.90
1626;DHT22;806;48.770;9.156;2023-03-14T03:36:42;10.20;99.90
1626;DHT22;806;48.770;9.156;2023-03-14T03:39:10;10.30;99.90
1626;DHT22;806;48.770;9.156;2023-03-14T03:41:37;10.30;99.90
1626;DHT22;806;48.770;9.156;2023-03-14T03:44:04;10.20;99.90
1626;DHT22;806;48.770;9.156;2023-03-14T03:46:32;10.30;99.90
1626;DHT22;806;48.770;9.156;2023-03-14T03:49:01;10.20;99.90
1626;DHT22;806;48.770;9.156;2023-03-14T03:51:28;10.20;99.90
1626;DHT22;806;48.770;9.156;2023-03-14T03:53:56;10.20;99.90
1626;DHT22;806;48.770;9.156;2023-03-14T03:56:24;10.20;99.90
1626;DHT22;806;48.770;9.156;2023-03-14T03:58:51;10.20;99.90
1626;DHT22;806;48.770;9.156;2023-03-14T04:01:18;10.20;99.90
1626;DHT22;806;48.770;9.156;2023-03-14T04:03:45;10.20;99.90
1626;DHT22;806;48.770;9.156;2023-03-14T04:06:14;10.20;99.90
1626;DHT22;806;48.770;9.156;2023-03-14T04:08:41;10.20;99.90
1626;DHT22;806;48.770;9.156;2023-03-14T04:11:09;10.10;99.90
1626;DHT22;806;48.770;9.156;2023-03-14T04:13:36;10.20;99.90
1626;DHT22;806;48.770;9.156;2023-03-14T04:16:08;10.10;99.90
1626;DHT22;806;48.770;9.156;2023-03-14T04:18:36;10.10;99.90
1626;DHT22;806;48.770;9.156;2023-03-14T04:21:04;10.00;99.90
1626;DHT22;806;48.770;9.156;2023-03-14T04:23:32;10.00;99.90
1626;DHT22;806;48.770;9.156;2023-03-14T04:26:00;10.00;99.90
1626;DHT22;806;48.770;9.156;2023-03-14T04:28:27;10.00;99.90
1626;DHT22;806;48.770;9.156;2023-03-14T04:30:54;10.00;99.90
1626;DHT22;806;48.770;9.156;2023-03-14T04:33:21;9.90;99.90
1626;DHT22;806;48.770;9.156;2023-03-14T04:35:53;10.00;99.90
1626;DHT22;806;48.770;9.156;2023-03-14T04:38:20;9.90;99.90
1626;DHT22;806;48.770;9.156;2023-03-14T04:40:49;9.90;99.90
1626;DHT22;806;48.770;9.156;2023-03-14T04:43:16;10.00;99.90
1626;DHT22;806;48.770;9.156;2023-03-14T04:45:43;9.90;99.90
1626;DHT22;806;48.770;9.156;2023-03-14T04:48:11;10.00;99.90
1626;DHT22;806;48.770;9.156;2023-03-14T04:50:38;9.90;99.90
1626;DHT22;806;48.770;9.156;2023-03-14T04:53:05;9.90;99.90
1626;DHT22;806;48.770;9.156;2023-03-14T04:55:33;9.90;99.90
1626;DHT22;806;48.770;9.156;2023-03-14T04:58:01;9.90;99.90
1626;DHT22;806;48.770;9.156;2023-03-14T05:00:28;9.90;99.90
1626;DHT22;806;48.770;9.156;2023-03-14T05:02:56;9.80;99.90
1626;DHT22;806;48.770;9.156;2023-03-14T05:05:23;9.80;99.90
1626;DHT22;806;48.770;9.156;2023-03-14T05:07:50;9.70;99.90
1626;DHT22;806;48.770;9.156;2023-03-14T05:10:17;9.80;99.90
1626;DHT22;806;48.770;9.156;2023-03-14T05:12:44;9.70;99.90
1626;DHT22;806;48.770;9.156;2023-03-14T05:15:13;9.70;99.90
1626;DHT22;806;48.770;9.156;2023-03-14T05:17:40;9.70;99.90
1626;DHT22;806;48.770;9.156;2023-03-14T05:20:08;9.60;99.90
1626;DHT22;806;48.770;9.156;2023-03-14T05:22:38;9.60;99.90
1626;DHT22;806;48.770;9.156;2023-03-14T05:25:07;9.60;99.90
1626;DHT22;806;48.770;9.156;2023-03-14T05:27:34;9.60;99.90
1626;DHT22;806;48.770;9.156;2023-03-14T05:30:02;9.60;99.90
1626;DHT22;806;48.770;9.156;2023-03-14T05:32:31;9.60;99.90
1626;DHT22;806;48.770;9.156;2023-03-14T05:34:58;9.60;99.90
1626;DHT22;806;48.770;9.156;2023-03-14T05:37:25;9.60;99.90
1626;DHT22;806;48.770;9.156;2023-03-14T05:39:53;9.60;99.90
1626;DHT22;806;48.770;9.156;2023-03-14T05:42:20;9.60;99.90
1626;DHT22;806;48.770;9.156;2023-03-14T05:44:47;9.60;99.90
1626;DHT22;806;48.770;9.156;2023-03-14T05:47:14;9.60;99.90
1626;DHT22;806;48.770;9.156;2023-03-14T05:49:43;9.60;99.90
1626;DHT22;806;48.770;9.156;2023-03-14T05:52:10;9.70;99.90
1626;DHT22;806;48.770;9.156;2023-03-14T05:54:37;9.60;99.90
1626;DHT22;806;48.770;9.156;2023-03-14T05:57:04;9.60;99.90
1626;DHT22;806;48.770;9.156;2023-03-14T05:59:31;9.60;99.90
1626;DHT22;806;48.770;9.156;2023-03-14T06:01:58;9.60;99.90
1626;DHT22;806;48.770;9.156;2023-03-14T06:04:26;9.70;99.90
1626;DHT22;806;48.770;9.156;2023-03-14T06:06:54;9.60;99.90
1626;DHT22;806;48.770;9.156;2023-03-14T06:09:21;9.70;99.90
1626;DHT22;806;48.770;9.156;2023-03-14T06:11:49;9.70;99.90
1626;DHT22;806;48.770;9.156;2023-03-14T06:14:16;9.70;99.90
1626;DHT22;806;48.770;9.156;2023-03-14T06:16:43;9.70;99.90
1626;DHT22;806;48.770;9.156;2023-03-14T06:19:11;9.70;99.90
1626;DHT22;806;48.770;9.156;2023-03-14T06:21:38;9.70;99.90
1626;DHT22;806;48.770;9.156;2023-03-14T06:24:07;9.70;99.90
1626;DHT22;806;48.770;9.156;2023-03-14T06:26:34;9.60;99.90
1626;DHT22;806;48.770;9.156;2023-03-14T06:29:01;9.60;99.90
1626;DHT22;806;48.770;9.156;2023-03-14T06:31:29;9.70;99.90
1626;DHT22;806;48.770;9.156;2023-03-14T06:33:56;9.80;99.90
1626;DHT22;806;48.770;9.156;2023-03-14T06:36:23;9.80;99.90
1626;DHT22;806;48.770;9.156;2023-03-14T06:38:51;9.90;99.90
1626;DHT22;806;48.770;9.156;2023-03-14T06:41:19;9.90;99.90
1626;DHT22;806;48.770;9.156;2023-03-14T06:43:49;10.00;99.90
1626;DHT22;806;48.770;9.156;2023-03-14T06:46:16;10.00;99.90
1626;DHT22;806;48.770;9.156;2023-03-14T06:48:44;9.90;99.90
1626;DHT22;806;48.770;9.156;2023-03-14T06:51:11;9.90;99.90
1626;DHT22;806;48.770;9.156;2023-03-14T06:53:38;9.90;99.90
1626;DHT22;806;48.770;9.156;2023-03-14T06:56:06;9.90;99.90
1626;DHT22;806;48.770;9.156;2023-03-14T06:58:35;10.10;99.90
1626;DHT22;806;48.770;9.156;2023-03-14T07:01:02;10.10;99.90
1626;DHT22;806;48.770;9.156;2023-03-14T07:03:29;10.10;99.90
1626;DHT22;806;48.770;9.156;2023-03-14T07:05:57;10.30;99.90
1626;DHT22;806;48.770;9.156;2023-03-14T07:08:25;10.30;99.90
1626;DHT22;806;48.770;9.156;2023-03-14T07:10:52;10.40;99.90
1626;DHT22;806;48.770;9.156;2023-03-14T07:13:19;10.40;99.90
1626;DHT22;806;48.770;9.156;2023-03-14T07:15:48;10.50;99.90
1626;DHT22;806;48.770;9.156;2023-03-14T07:18:15;10.60;99.90
1626;DHT22;806;48.770;9.156;2023-03-14T07:20:44;10.80;99.90
1626;DHT22;806;48.770;9.156;2023-03-14T07:23:11;10.80;99.90
1626;DHT22;806;48.770;9.156;2023-03-14T07:25:38;10.80;99.90
1626;DHT22;806;48.770;9.156;2023-03-14T07:28:05;10.90;99.90
1626;DHT22;806;48.770;9.156;2023-03-14T07:30:33;11.00;99.90
1626;DHT22;806;48.770;9.156;2023-03-14T07:33:02;11.10;99.90
1626;DHT22;806;48.770;9.156;2023-03-14T07:35:29;11.20;99.90
1626;DHT22;806;48.770;9.156;2023-03-14T07:37:56;11.20;99.90
1626;DHT22;806;48.770;9.156;2023-03-14T07:40:26;11.30;99.90
1626;DHT22;806;48.770;9.156;2023-03-14T07:42:53;11.40;99.90
1626;DHT22;806;48.770;9.156;2023-03-14T07:45:21;11.50;99.90
1626;DHT22;806;48.770;9.156;2023-03-14T07:47:48;11.50;99.90
1626;DHT22;806;48.770;9.156;2023-03-14T07:50:17;11.70;99.90
1626;DHT22;806;48.770;9.156;2023-03-14T07:52:44;11.80;99.90
1626;DHT22;806;48.770;9.156;2023-03-14T07:55:12;11.90;99.90
1626;DHT22;806;48.770;9.156;2023-03-14T07:57:39;11.80;99.90
1626;DHT22;806;48.770;9.156;2023-03-14T08:00:07;11.90;99.90
1626;DHT22;806;48.770;9.156;2023-03-14T08:02:35;11.90;99.90
1626;DHT22;806;48.770;9.156;2023-03-14T08:05:03;11.80;99.90
1626;DHT22;806;48.770;9.156;2023-03-14T08:07:32;11.80;99.90
1626;DHT22;806;48.770;9.156;2023-03-14T08:09:59;11.80;99.90
1626;DHT22;806;48.770;9.156;2023-03-14T08:12:26;12.00;99.90
1626;DHT22;806;48.770;9.156;2023-03-14T08:14:53;12.10;99.90
1626;DHT22;806;48.770;9.156;2023-03-14T08:17:20;12.20;99.90
1626;DHT22;806;48.770;9.156;2023-03-14T08:19:47;12.20;99.90
1626;DHT22;806;48.770;9.156;2023-03-14T08:22:14;12.20;99.90
1626;DHT22;806;48.770;9.156;2023-03-14T08:24:43;12.30;99.90
1626;DHT22;806;48.770;9.156;2023-03-14T08:27:10;12.40;99.90
1626;DHT22;806;48.770;9.156;2023-03-14T08:29:37;12.40;99.90
1626;DHT22;806;48.770;9.156;2023-03-14T08:32:07;12.60;99.90
1626;DHT22;806;48.770;9.156;2023-03-14T08:34:34;12.70;99.90
1626;DHT22;806;48.770;9.156;2023-03-14T08:37:01;12.90;99.90
1626;DHT22;806;48.770;9.156;2023-03-14T08:39:28;13.00;99.90
1626;DHT22;806;48.770;9.156;2023-03-14T08:41:57;13.00;99.90
1626;DHT22;806;48.770;9.156;2023-03-14T08:44:24;13.00;99.90
1626;DHT22;806;48.770;9.156;2023-03-14T08:46:51;13.00;99.90
1626;DHT22;806;48.770;9.156;2023-03-14T08:49:18;12.80;99.90
1626;DHT22;806;48.770;9.156;2023-03-14T08:51:45;12.90;99.90
1626;DHT22;806;48.770;9.156;2023-03-14T08:54:13;12.80;99.90
1626;DHT22;806;48.770;9.156;2023-03-14T08:56:40;12.70;99.90
1626;DHT22;806;48.770;9.156;2023-03-14T08:59:08;12.70;99.90
1626;DHT22;806;48.770;9.156;2023-03-14T09:01:36;12.70;99.90
1626;DHT22;806;48.770;9.156;2023-03-14T09:04:04;12.80;99.90
1626;DHT22;806;48.770;9.156;2023-03-14T09:06:32;12.90;99.90
1626;DHT22;806;48.770;9.156;2023-03-14T09:08:59;12.90;99.90
1626;DHT22;806;48.770;9.156;2023-03-14T09:11:26;12.90;99.90
1626;DHT22;806;48.770;9.156;2023-03-14T09:13:54;12.70;99.90
1626;DHT22;806;48.770;9.156;2023-03-14T09:16:22;12.60;99.90
1626;DHT22;806;48.770;9.156;2023-03-14T09:18:50;12.50;99.90
1626;DHT22;806;48.770;9.156;2023-03-14T09:21:20;12.70;99.90
1626;DHT22;806;48.770;9.156;2023-03-14T09:23:47;12.90;99.90
1626;DHT22;806;48.770;9.156;2023-03-14T09:26:14;12.90;99.90
1626;DHT22;806;48.770;9.156;2023-03-14T09:28:41;13.10;99.90
1626;DHT22;806;48.770;9.156;2023-03-14T09:31:10;13.30;99.90
1626;DHT22;806;48.770;9.156;2023-03-14T09:33:39;13.40;99.90
1626;DHT22;806;48.770;9.156;2023-03-14T09:39:28;13.60;99.90
1626;DHT22;806;48.770;9.156;2023-03-14T09:41:57;13.40;99.90
1626;DHT22;806;48.770;9.156;2023-03-14T09:44:29;13.20;99.90
1626;DHT22;806;48.770;9.156;2023-03-14T09:47:01;13.20;99.90
1626;DHT22;806;48.770;9.156;2023-03-14T09:49:35;13.10;99.90
1626;DHT22;806;48.770;9.156;2023-03-14T09:52:06;13.00;99.90
1626;DHT22;806;48.770;9.156;2023-03-14T09:54:38;13.00;99.90
1626;DHT22;806;48.770;9.156;2023-03-14T09:57:12;13.10;99.90
1626;DHT22;806;48.770;9.156;2023-03-14T09:59:43;13.20;99.90
1626;DHT22;806;48.770;9.156;2023-03-14T10:02:14;13.30;99.90
1626;DHT22;806;48.770;9.156;2023-03-14T10:04:45;13.10;99.90
1626;DHT22;806;48.770;9.156;2023-03-14T10:07:15;13.00;99.90
1626;DHT22;806;48.770;9.156;2023-03-14T10:09:45;13.00;99.90
1626;DHT22;806;48.770;9.156;2023-03-14T10:12:14;12.90;99.90
1626;DHT22;806;48.770;9.156;2023-03-14T10:14:47;12.90;99.90
1626;DHT22;806;48.770;9.156;2023-03-14T10:17:15;13.10;99.90
1626;DHT22;806;48.770;9.156;2023-03-14T10:19:54;13.50;99.90
1626;DHT22;806;48.770;9.156;2023-03-14T10:22:24;13.80;99.90
1626;DHT22;806;48.770;9.156;2023-03-14T10:24:54;13.80;99.90
1626;DHT22;806;48.770;9.156;2023-03-14T10:27:27;13.90;99.90
1626;DHT22;806;48.770;9.156;2023-03-14T10:29:56;14.10;99.90
1626;DHT22;806;48.770;9.156;2023-03-14T10:32:31;14.10;99.90
1626;DHT22;806;48.770;9.156;2023-03-14T10:37:50;13.90;99.90
1626;DHT22;806;48.770;9.156;2023-03-14T10:40:19;13.70;99.90
1626;DHT22;806;48.770;9.156;2023-03-14T10:42:48;13.60;99.90
1626;DHT22;806;48.770;9.156;2023-03-14T10:45:30;13.70;99.90
1626;DHT22;806;48.770;9.156;2023-03-14T10:48:05;13.70;99.90
1626;DHT22;806;48.770;9.156;2023-03-14T10:50:34;13.80;99.90
1626;DHT22;806;48.770;9.156;2023-03-14T10:53:03;13.80;99.90
1626;DHT22;806;48.770;9.156;2023-03-14T10:55:40;14.10;99.90
1626;DHT22;806;48.770;9.156;2023-03-14T10:58:21;14.00;99.90
1626;DHT22;806;48.770;9.156;2023-03-14T11:01:00;14.10;99.90
1626;DHT22;806;48.770;9.156;2023-03-14T11:03:31;14.00;99.90
1626;DHT22;806;48.770;9.156;2023-03-14T11:06:05;13.90;99.90
1626;DHT22;806;48.770;9.156;2023-03-14T11:08:39;13.90;99.90
1626;DHT22;806;48.770;9.156;2023-03-14T11:11:15;13.80;99.90
1626;DHT22;806;48.770;9.156;2023-03-14T11:13:53;13.60;99.90
1626;DHT22;806;48.770;9.156;2023-03-14T11:16:26;13.50;99.90
1626;DHT22;806;48.770;9.156;2023-03-14T11:21:42;13.40;99.90
1626;DHT22;806;48.770;9.156;2023-03-14T11:24:27;13.00;99.90
1626;DHT22;806;48.770;9.156;2023-03-14T11:27:03;12.90;99.90
1626;DHT22;806;48.770;9.156;2023-03-14T11:29:39;12.70;99.90
1626;DHT22;806;48.770;9.156;2023-03-14T11:32:13;12.60;99.90
1626;DHT22;806;48.770;9.156;2023-03-14T11:34:44;12.40;99.90
1626;DHT22;806;48.770;9.156;2023-03-14T11:37:21;12.50;99.90
1626;DHT22;806;48.770;9.156;2023-03-14T11:39:56;12.50;99.90
1626;DHT22;806;48.770;9.156;2023-03-14T11:42:26;12.50;99.90
1626;DHT22;806;48.770;9.156;2023-03-14T11:44:56;12.50;99.90
1626;DHT22;806;48.770;9.156;2023-03-14T11:47:26;12.40;99.90
1626;DHT22;806;48.770;9.156;2023-03-14T11:50:00;12.60;99.90
1626;DHT22;806;48.770;9.156;2023-03-14T11:52:33;12.70;99.90
1626;DHT22;806;48.770;9.156;2023-03-14T11:55:07;12.60;99.90
1626;DHT22;806;48.770;9.156;2023-03-14T11:57:39;12.60;99.90
1626;DHT22;806;48.770;9.156;2023-03-14T12:00:14;12.50;99.90
1626;DHT22;806;48.770;9.156;2023-03-14T12:02:48;12.40;99.90
1626;DHT22;806;48.770;9.156;2023-03-14T12:05:35;12.40;99.90
1626;DHT22;806;48.770;9.156;2023-03-14T12:08:27;12.60;99.90
1626;DHT22;806;48.770;9.156;2023-03-14T12:10:59;12.90;99.90
1626;DHT22;806;48.770;9.156;2023-03-14T12:13:29;13.10;99.90
1626;DHT22;806;48.770;9.156;2023-03-14T12:16:00;12.90;99.90
1626;DHT22;806;48.770;9.156;2023-03-14T12:18:33;12.60;99.90
1626;DHT22;806;48.770;9.156;2023-03-14T12:21:02;12.60;99.90
1626;DHT22;806;48.770;9.156;2023-03-14T12:23:37;12.50;99.90
1626;DHT22;806;48.770;9.156;2023-03-14T12:26:16;12.70;99.90
1626;DHT22;806;48.770;9.156;2023-03-14T12:28:48;12.80;99.90
1626;DHT22;806;48.770;9.156;2023-03-14T12:31:38;13.20;99.90
1626;DHT22;806;48.770;9.156;2023-03-14T12:34:28;13.30;99.90
1626;DHT22;806;48.770;9.156;2023-03-14T12:37:16;13.10;99.90
1626;DHT22;806;48.770;9.156;2023-03-14T12:39:50;12.50;99.90
1626;DHT22;806;48.770;9.156;2023-03-14T12:42:37;12.30;99.90
1626;DHT22;806;48.770;9.156;2023-03-14T12:48:14;12.20;99.90
1626;DHT22;806;48.770;9.156;2023-03-14T12:50:45;12.50;99.90
1626;DHT22;806;48.770;9.156;2023-03-14T12:56:25;13.00;99.90
1626;DHT22;806;48.770;9.156;2023-03-14T12:59:21;12.80;99.90
1626;DHT22;806;48.770;9.156;2023-03-14T13:01:55;12.60;99.90
1626;DHT22;806;48.770;9.156;2023-03-14T13:04:28;12.50;99.90
1626;DHT22;806;48.770;9.156;2023-03-14T13:06:57;12.80;99.90
1626;DHT22;806;48.770;9.156;2023-03-14T13:12:25;12.60;99.90
1626;DHT22;806;48.770;9.156;2023-03-14T13:14:58;12.30;99.90
1626;DHT22;806;48.770;9.156;2023-03-14T13:17:28;12.20;99.90
1626;DHT22;806;48.770;9.156;2023-03-14T13:19:59;12.30;99.90
1626;DHT22;806;48.770;9.156;2023-03-14T13:22:30;12.10;99.90
1626;DHT22;806;48.770;9.156;2023-03-14T13:25:00;12.20;99.90
1626;DHT22;806;48.770;9.156;2023-03-14T13:27:31;12.40;99.90
1626;DHT22;806;48.770;9.156;2023-03-14T13:29:59;12.40;99.90
1626;DHT22;806;48.770;9.156;2023-03-14T13:32:32;12.20;99.90
1626;DHT22;806;48.770;9.156;2023-03-14T13:34:59;11.70;99.90
1626;DHT22;806;48.770;9.156;2023-03-14T13:37:27;11.40;99.90
1626;DHT22;806;48.770;9.156;2023-03-14T13:39:55;11.40;99.90
1626;DHT22;806;48.770;9.156;2023-03-14T13:42:25;11.30;99.90
1626;DHT22;806;48.770;9.156;2023-03-14T13:44:56;11.30;99.90
1626;DHT22;806;48.770;9.156;2023-03-14T13:47:25;11.30;99.90
1626;DHT22;806;48.770;9.156;2023-03-14T13:49:53;11.40;99.90
1626;DHT22;806;48.770;9.156;2023-03-14T13:52:28;11.40;99.90
1626;DHT22;806;48.770;9.156;2023-03-14T13:54:56;11.50;99.90
1626;DHT22;806;48.770;9.156;2023-03-14T13:57:23;11.40;99.90
1626;DHT22;806;48.770;9.156;2023-03-14T14:00:03;11.20;99.90
1626;DHT22;806;48.770;9.156;2023-03-14T14:02:36;11.20;99.90
1626;DHT22;806;48.770;9.156;2023-03-14T14:05:05;11.20;99.90
1626;DHT22;806;48.770;9.156;2023-03-14T14:07:32;11.00;99.90
1626;DHT22;806;48.770;9.156;2023-03-14T14:09:59;11.10;99.90
1626;DHT22;806;48.770;9.156;2023-03-14T14:12:31;11.10;99.90
1626;DHT22;806;48.770;9.156;2023-03-14T14:15:04;11.00;99.90
1626;DHT22;806;48.770;9.156;2023-03-14T14:17:36;11.00;99.60
1626;DHT22;806;48.770;9.156;2023-03-14T14:20:07;11.10;99.80
1626;DHT22;806;48.770;9.156;2023-03-14T14:22:35;11.10;99.60
1626;DHT22;806;48.770;9.156;2023-03-14T14:25:03;11.20;99.00
1626;DHT22;806;48.770;9.156;2023-03-14T14:27:35;11.30;98.80
1626;DHT22;806;48.770;9.156;2023-03-14T14:30:25;11.10;96.20
1626;DHT22;806;48.770;9.156;2023-03-14T14:32:52;10.90;96.10
1626;DHT22;806;48.770;9.156;2023-03-14T14:35:23;10.60;96.60
1626;DHT22;806;48.770;9.156;2023-03-14T14:37:51;10.50;97.70
1626;DHT22;806;48.770;9.156;2023-03-14T14:40:20;10.50;98.60
1626;DHT22;806;48.770;9.156;2023-03-14T14:42:47;10.50;97.30
1626;DHT22;806;48.770;9.156;2023-03-14T14:45:18;10.60;98.30
1626;DHT22;806;48.770;9.156;2023-03-14T14:47:50;10.50;98.20
1626;DHT22;806;48.770;9.156;2023-03-14T14:50:27;10.40;99.40
1626;DHT22;806;48.770;9.156;2023-03-14T14:52:57;10.20;98.60
1626;DHT22;806;48.770;9.156;2023-03-14T14:55:30;10.20;99.90
1626;DHT22;806;48.770;9.156;2023-03-14T14:58:12;10.30;99.90
1626;DHT22;806;48.770;9.156;2023-03-14T15:00:51;10.20;98.30
1626;DHT22;806;48.770;9.156;2023-03-14T15:03:19;10.30;99.90
1626;DHT22;806;48.770;9.156;2023-03-14T15:05:47;10.30;99.00
1626;DHT22;806;48.770;9.156;2023-03-14T15:08:14;10.30;99.90
1626;DHT22;806;48.770;9.156;2023-03-14T15:10:41;10.40;98.90
1626;DHT22;806;48.770;9.156;2023-03-14T15:13:08;10.40;99.90
1626;DHT22;806;48.770;9.156;2023-03-14T15:15:35;10.50;98.70
1626;DHT22;806;48.770;9.156;2023-03-14T15:18:11;10.60;99.90
1626;DHT22;806;48.770;9.156;2023-03-14T15:20:39;10.70;98.70
1626;DHT22;806;48.770;9.156;2023-03-14T15:23:10;10.80;99.60
1626;DHT22;806;48.770;9.156;2023-03-14T15:25:37;11.00;99.90
1626;DHT22;806;48.770;9.156;2023-03-14T15:28:13;11.00;99.90
1626;DHT22;806;48.770;9.156;2023-03-14T15:30:41;10.90;97.80
1626;DHT22;806;48.770;9.156;2023-03-14T15:33:09;10.70;99.00
1626;DHT22;806;48.770;9.156;2023-03-14T15:35:37;10.60;98.30
1626;DHT22;806;48.770;9.156;2023-03-14T15:38:04;10.40;98.40
1626;DHT22;806;48.770;9.156;2023-03-14T15:40:32;10.20;98.60
1626;DHT22;806;48.770;9.156;2023-03-14T15:42:59;10.10;99.90
1626;DHT22;806;48.770;9.156;2023-03-14T15:45:26;10.10;99.90
1626;DHT22;806;48.770;9.156;2023-03-14T15:47:53;10.10;99.70
1626;DHT22;806;48.770;9.156;2023-03-14T15:50:22;10.10;99.90
1626;DHT22;806;48.770;9.156;2023-03-14T15:52:51;10.00;99.90
1626;DHT22;806;48.770;9.156;2023-03-14T15:55:18;10.00;99.90
1626;DHT22;806;48.770;9.156;2023-03-14T15:57:45;10.10;99.90
1626;DHT22;806;48.770;9.156;2023-03-14T16:00:14;10.20;99.90
1626;DHT22;806;48.770;9.156;2023-03-14T16:02:43;9.90;99.90
1626;DHT22;806;48.770;9.156;2023-03-14T16:05:12;10.00;99.90
1626;DHT22;806;48.770;9.156;2023-03-14T16:07:40;10.00;99.90
1626;DHT22;806;48.770;9.156;2023-03-14T16:10:09;9.90;99.90
1626;DHT22;806;48.770;9.156;2023-03-14T16:12:38;9.80;99.90
1626;DHT22;806;48.770;9.156;2023-03-14T16:15:08;9.80;99.90
1626;DHT22;806;48.770;9.156;2023-03-14T16:17:36;9.70;99.90
1626;DHT22;806;48.770;9.156;2023-03-14T16:20:06;9.70;99.90
1626;DHT22;806;48.770;9.156;2023-03-14T16:22:34;9.70;99.90
1626;DHT22;806;48.770;9.156;2023-03-14T16:25:04;9.70;99.90
1626;DHT22;806;48.770;9.156;2023-03-14T16:27:32;9.80;99.90
1626;DHT22;806;48.770;9.156;2023-03-14T16:29:59;9.80;99.90
1626;DHT22;806;48.770;9.156;2023-03-14T16:32:26;9.80;99.90
1626;DHT22;806;48.770;9.156;2023-03-14T16:34:53;9.80;99.90
1626;DHT22;806;48.770;9.156;2023-03-14T16:37:23;9.80;99.90
1626;DHT22;806;48.770;9.156;2023-03-14T16:39:52;9.90;99.90
1626;DHT22;806;48.770;9.156;2023-03-14T16:42:22;9.90;99.90
1626;DHT22;806;48.770;9.156;2023-03-14T16:44:49;9.90;99.90
1626;DHT22;806;48.770;9.156;2023-03-14T16:47:16;9.90;99.90
1626;DHT22;806;48.770;9.156;2023-03-14T16:49:44;9.90;99.90
1626;DHT22;806;48.770;9.156;2023-03-14T16:52:11;9.90;99.90
1626;DHT22;806;48.770;9.156;2023-03-14T16:54:38;9.80;99.90